sensor_id;sensor_type;location;lat;lon;timestamp;pressure;altitude;pressure_sealevel;temperature;humidity
34197;BME280;36594;45.192;5.722;2023-05-07T00:01:04;99028.20;;;26.49;37.69
34197;BME280;36594;45.192;5.722;2023-05-07T00:03:53;99020.73;;;26.49;37.66
34197;BME280;36594;45.192;5.722;2023-05-07T00:06:42;99029.58;;;26.49;37.66
34197;BME280;36594;45.192;5.722;2023-05-07T00:09:30;99035.09;;;26.49;37.65
34197;BME280;36594;45.192;5.722;2023-05-07T00:12:18;99035.88;;;26.47;37.66
34197;BME280;36594;45.192;5.722;2023-05-07T00:15:08;99037.56;;;26.50;37.63
34197;BME280;36594;45.192;5.722;2023-05-07T00:17:56;99038.94;;;26.50;37.58
34197;BME280;36594;45.192;5.722;2023-05-07T00:20:46;99043.91;;;26.51;37.56
34197;BME280;36594;45.192;5.722;2023-05-07T00:23:35;99043.33;;;26.51;37.56
34197;BME280;36594;45.192;5.722;2023-05-07T00:26:23;99041.41;;;26.52;37.54
34197;BME280;36594;45.192;5.722;2023-05-07T00:29:12;99039.22;;;26.49;37.58
34197;BME280;36594;45.192;5.722;2023-05-07T00:32:00;99038.63;;;26.47;37.60
34197;BME280;36594;45.192;5.722;2023-05-07T00:34:48;99043.34;;;26.46;37.60
34197;BME280;36594;45.192;5.722;2023-05-07T00:37:38;99035.88;;;26.47;37.63
34197;BME280;36594;45.192;5.722;2023-05-07T00:40:26;99036.45;;;26.46;37.61
34197;BME280;36594;45.192;5.722;2023-05-07T00:43:15;99039.77;;;26.51;37.59
34197;BME280;36594;45.192;5.722;2023-05-07T00:46:04;99038.94;;;26.50;37.61
34197;BME280;36594;45.192;5.722;2023-05-07T00:48:53;99041.15;;;26.51;37.55
34197;BME280;36594;45.192;5.722;2023-05-07T00:51:41;99039.47;;;26.47;37.63
34197;BME280;36594;45.192;5.722;2023-05-07T00:54:29;99044.14;;;26.47;37.65
34197;BME280;36594;45.192;5.722;2023-05-07T00:57:18;99035.08;;;26.46;37.69
34197;BME280;36594;45.192;5.722;2023-05-07T01:00:08;99031.48;;;26.46;37.61
34197;BME280;36594;45.192;5.722;2023-05-07T01:02:59;99032.31;;;26.44;37.68
34197;BME280;36594;45.192;5.722;2023-05-07T01:05:48;99034.50;;;26.47;37.61
34197;BME280;36594;45.192;5.722;2023-05-07T01:08:37;99039.47;;;26.47;37.60
34197;BME280;36594;45.192;5.722;2023-05-07T01:11:27;99048.27;;;26.47;37.66
34197;BME280;36594;45.192;5.722;2023-05-07T01:14:17;99042.21;;;26.45;37.65
34197;BME280;36594;45.192;5.722;2023-05-07T01:17:06;99049.64;;;26.44;37.72
34197;BME280;36594;45.192;5.722;2023-05-07T01:19:52;99044.97;;;26.45;37.63
34197;BME280;36594;45.192;5.722;2023-05-07T01:22:43;99048.27;;;26.47;37.63
34197;BME280;36594;45.192;5.722;2023-05-07T01:25:32;99052.39;;;26.44;37.61
34197;BME280;36594;45.192;5.722;2023-05-07T01:28:22;99053.52;;;26.43;37.71
34197;BME280;36594;45.192;5.722;2023-05-07T01:31:12;99060.68;;;26.42;37.66
34197;BME280;36594;45.192;5.722;2023-05-07T01:34:02;99057.09;;;26.41;37.67
34197;BME280;36594;45.192;5.722;2023-05-07T01:36:53;99063.69;;;26.43;37.65
34197;BME280;36594;45.192;5.722;2023-05-07T01:39:42;99062.03;;;26.44;37.70
34197;BME280;36594;45.192;5.722;2023-05-07T01:42:31;99065.36;;;26.44;37.70
34197;BME280;36594;45.192;5.722;2023-05-07T01:45:19;99066.17;;;26.44;37.74
34197;BME280;36594;45.192;5.722;2023-05-07T01:48:09;99064.54;;;26.46;37.73
34197;BME280;36594;45.192;5.722;2023-05-07T01:50:58;99062.33;;;26.45;37.73
34197;BME280;36594;45.192;5.722;2023-05-07T01:53:47;99057.66;;;26.46;37.79
34197;BME280;36594;45.192;5.722;2023-05-07T01:56:38;99060.94;;;26.43;37.76
34197;BME280;36594;45.192;5.722;2023-05-07T01:59:28;99060.66;;;26.44;37.84
34197;BME280;36594;45.192;5.722;2023-05-07T02:02:16;99052.97;;;26.44;37.84
34197;BME280;36594;45.192;5.722;2023-05-07T02:05:07;99058.73;;;26.42;37.80
34197;BME280;36594;45.192;5.722;2023-05-07T02:07:57;99054.88;;;26.41;37.86
34197;BME280;36594;45.192;5.722;2023-05-07T02:10:47;99059.01;;;26.41;37.87
34197;BME280;36594;45.192;5.722;2023-05-07T02:13:37;99065.61;;;26.42;37.87
34197;BME280;36594;45.192;5.722;2023-05-07T02:16:25;99063.16;;;26.43;37.88
34197;BME280;36594;45.192;5.722;2023-05-07T02:19:14;99058.19;;;26.43;37.84
34197;BME280;36594;45.192;5.722;2023-05-07T02:22:02;99059.56;;;26.43;37.88
34197;BME280;36594;45.192;5.722;2023-05-07T02:24:51;99056.80;;;26.40;37.82
34197;BME280;36594;45.192;5.722;2023-05-07T02:27:40;99059.86;;;26.44;37.88
34197;BME280;36594;45.192;5.722;2023-05-07T02:30:29;99060.94;;;26.43;37.85
34197;BME280;36594;45.192;5.722;2023-05-07T02:33:18;99052.13;;;26.43;37.80
34197;BME280;36594;45.192;5.722;2023-05-07T02:36:09;99050.75;;;26.41;37.83
34197;BME280;36594;45.192;5.722;2023-05-07T02:39:00;99059.55;;;26.40;37.85
34197;BME280;36594;45.192;5.722;2023-05-07T02:41:50;99057.09;;;26.41;37.85
34197;BME280;36594;45.192;5.722;2023-05-07T02:44:38;99054.88;;;26.41;37.79
34197;BME280;36594;45.192;5.722;2023-05-07T02:47:27;99060.09;;;26.40;37.84
34197;BME280;36594;45.192;5.722;2023-05-07T02:50:17;99058.47;;;26.41;37.77
34197;BME280;36594;45.192;5.722;2023-05-07T02:53:05;99058.17;;;26.40;37.78
34197;BME280;36594;45.192;5.722;2023-05-07T02:55:54;99058.17;;;26.40;37.81
34197;BME280;36594;45.192;5.722;2023-05-07T02:58:43;99058.47;;;26.41;37.85
34197;BME280;36594;45.192;5.722;2023-05-07T03:01:32;99056.25;;;26.41;37.80
34197;BME280;36594;45.192;5.722;2023-05-07T03:04:24;99048.53;;;26.40;37.83
34197;BME280;36594;45.192;5.722;2023-05-07T03:07:12;99053.20;;;26.40;37.84
34197;BME280;36594;45.192;5.722;2023-05-07T03:10:02;99045.78;;;26.40;37.82
34197;BME280;36594;45.192;5.722;2023-05-07T03:12:51;99047.16;;;26.40;37.89
34197;BME280;36594;45.192;5.722;2023-05-07T03:15:39;99048.28;;;26.42;37.85
34197;BME280;36594;45.192;5.722;2023-05-07T03:18:27;99040.27;;;26.38;38.01
34197;BME280;36594;45.192;5.722;2023-05-07T03:21:16;99040.02;;;26.42;37.96
34197;BME280;36594;45.192;5.722;2023-05-07T03:24:05;99036.16;;;26.43;37.97
34197;BME280;36594;45.192;5.722;2023-05-07T03:26:53;99038.89;;;26.40;38.02
34197;BME280;36594;45.192;5.722;2023-05-07T03:29:41;99038.35;;;26.41;38.07
34197;BME280;36594;45.192;5.722;2023-05-07T03:32:30;99047.17;;;26.43;37.95
34197;BME280;36594;45.192;5.722;2023-05-07T03:35:18;99046.91;;;26.42;37.97
34197;BME280;36594;45.192;5.722;2023-05-07T03:38:07;99046.06;;;26.39;38.05
34197;BME280;36594;45.192;5.722;2023-05-07T03:40:57;99049.08;;;26.40;37.98
34197;BME280;36594;45.192;5.722;2023-05-07T03:43:46;99048.55;;;26.43;38.00
34197;BME280;36594;45.192;5.722;2023-05-07T03:46:35;99048.83;;;26.41;38.02
34197;BME280;36594;45.192;5.722;2023-05-07T03:49:23;99054.57;;;26.37;38.06
34197;BME280;36594;45.192;5.722;2023-05-07T03:52:12;99049.37;;;26.41;38.03
34197;BME280;36594;45.192;5.722;2023-05-07T03:55:01;99056.25;;;26.41;37.97
34197;BME280;36594;45.192;5.722;2023-05-07T03:57:51;99056.53;;;26.39;37.97
34197;BME280;36594;45.192;5.722;2023-05-07T04:00:40;99055.96;;;26.40;38.06
34197;BME280;36594;45.192;5.722;2023-05-07T04:03:37;99055.96;;;26.40;37.99
34197;BME280;36594;45.192;5.722;2023-05-07T04:06:25;99059.00;;;26.38;38.05
34197;BME280;36594;45.192;5.722;2023-05-07T04:09:14;99063.67;;;26.38;38.07
34197;BME280;36594;45.192;5.722;2023-05-07T04:12:05;99069.18;;;26.38;38.09
34197;BME280;36594;45.192;5.722;2023-05-07T04:14:55;99071.11;;;26.40;38.08
34197;BME280;36594;45.192;5.722;2023-05-07T04:17:44;99078.00;;;26.40;38.08
34197;BME280;36594;45.192;5.722;2023-05-07T04:20:34;99081.05;;;26.41;38.01
34197;BME280;36594;45.192;5.722;2023-05-07T04:23:26;99076.91;;;26.41;38.02
34197;BME280;36594;45.192;5.722;2023-05-07T04:26:16;99091.22;;;26.40;38.06
34197;BME280;36594;45.192;5.722;2023-05-07T04:29:05;99094.52;;;26.40;38.05
34197;BME280;36594;45.192;5.722;2023-05-07T04:31:54;99099.48;;;26.40;38.00
34197;BME280;36594;45.192;5.722;2023-05-07T04:34:43;99101.41;;;26.40;37.99
34197;BME280;36594;45.192;5.722;2023-05-07T04:37:32;99111.88;;;26.40;37.99
34197;BME280;36594;45.192;5.722;2023-05-07T04:40:21;99109.42;;;26.41;38.00
34197;BME280;36594;45.192;5.722;2023-05-07T04:43:10;99110.80;;;26.41;37.96
34197;BME280;36594;45.192;5.722;2023-05-07T04:46:00;99103.08;;;26.41;38.00
34197;BME280;36594;45.192;5.722;2023-05-07T04:48:49;99113.02;;;26.42;37.96
34197;BME280;36594;45.192;5.722;2023-05-07T04:51:38;99112.17;;;26.41;37.95
34197;BME280;36594;45.192;5.722;2023-05-07T04:54:28;99120.98;;;26.41;37.97
34197;BME280;36594;45.192;5.722;2023-05-07T04:57:17;99117.69;;;26.41;37.94
34197;BME280;36594;45.192;5.722;2023-05-07T05:00:07;99121.52;;;26.40;37.98
34197;BME280;36594;45.192;5.722;2023-05-07T05:03:00;99125.13;;;26.43;37.99
34197;BME280;36594;45.192;5.722;2023-05-07T05:05:52;99128.16;;;26.42;37.94
34197;BME280;36594;45.192;5.722;2023-05-07T05:08:41;99125.65;;;26.40;38.05
34197;BME280;36594;45.192;5.722;2023-05-07T05:11:30;99130.06;;;26.39;38.08
34197;BME280;36594;45.192;5.722;2023-05-07T05:14:20;99136.66;;;26.38;38.07
34197;BME280;36594;45.192;5.722;2023-05-07T05:17:08;99141.91;;;26.39;38.09
34197;BME280;36594;45.192;5.722;2023-05-07T05:19:57;99136.95;;;26.39;38.10
34197;BME280;36594;45.192;5.722;2023-05-07T05:22:46;99133.38;;;26.41;38.00
34197;BME280;36594;45.192;5.722;2023-05-07T05:25:34;99138.88;;;26.41;37.98
34197;BME280;36594;45.192;5.722;2023-05-07T05:28:23;99142.72;;;26.40;37.98
34197;BME280;36594;45.192;5.722;2023-05-07T05:31:12;99147.44;;;26.42;37.96
34197;BME280;36594;45.192;5.722;2023-05-07T05:34:02;99145.77;;;26.41;37.94
34197;BME280;36594;45.192;5.722;2023-05-07T05:36:52;99144.69;;;26.42;38.01
34197;BME280;36594;45.192;5.722;2023-05-07T05:39:40;99152.36;;;26.40;37.98
34197;BME280;36594;45.192;5.722;2023-05-07T05:42:30;99148.21;;;26.32;37.00
34197;BME280;36594;45.192;5.722;2023-05-07T05:45:18;99149.24;;;26.24;36.69
34197;BME280;36594;45.192;5.722;2023-05-07T05:48:07;99148.91;;;26.13;36.29
34197;BME280;36594;45.192;5.722;2023-05-07T05:50:55;99144.97;;;26.03;36.13
34197;BME280;36594;45.192;5.722;2023-05-07T05:53:44;99137.77;;;25.95;35.95
34197;BME280;36594;45.192;5.722;2023-05-07T05:56:33;99144.55;;;25.82;35.96
34197;BME280;36594;45.192;5.722;2023-05-07T05:59:22;99140.36;;;25.75;36.03
34197;BME280;36594;45.192;5.722;2023-05-07T06:02:12;99145.27;;;25.70;35.88
34197;BME280;36594;45.192;5.722;2023-05-07T06:05:02;99143.86;;;25.65;35.84
34197;BME280;36594;45.192;5.722;2023-05-07T06:07:52;99143.03;;;25.62;35.85
34197;BME280;36594;45.192;5.722;2023-05-07T06:10:41;99150.42;;;25.59;35.75
34197;BME280;36594;45.192;5.722;2023-05-07T06:13:30;99139.40;;;25.57;35.82
34197;BME280;36594;45.192;5.722;2023-05-07T06:16:19;99139.37;;;25.54;35.82
34197;BME280;36594;45.192;5.722;2023-05-07T06:19:08;99143.77;;;25.53;35.73
34197;BME280;36594;45.192;5.722;2023-05-07T06:21:57;99141.27;;;25.51;35.60
34197;BME280;36594;45.192;5.722;2023-05-07T06:24:48;99137.70;;;25.51;35.60
34197;BME280;36594;45.192;5.722;2023-05-07T06:27:37;99134.36;;;25.49;35.63
34197;BME280;36594;45.192;5.722;2023-05-07T06:30:26;99130.86;;;25.53;35.79
34197;BME280;36594;45.192;5.722;2023-05-07T06:33:15;99134.44;;;25.56;35.91
34197;BME280;36594;45.192;5.722;2023-05-07T06:36:05;99132.83;;;25.63;35.90
34197;BME280;36594;45.192;5.722;2023-05-07T06:38:55;99136.73;;;25.67;35.95
34197;BME280;36594;45.192;5.722;2023-05-07T06:41:43;99133.45;;;25.72;36.05
34197;BME280;36594;45.192;5.722;2023-05-07T06:44:34;99137.61;;;25.75;36.17
34197;BME280;36594;45.192;5.722;2023-05-07T06:47:26;99137.38;;;25.81;36.21
34197;BME280;36594;45.192;5.722;2023-05-07T06:50:15;99141.80;;;25.82;36.26
34197;BME280;36594;45.192;5.722;2023-05-07T06:53:05;99140.44;;;25.85;36.27
34197;BME280;36594;45.192;5.722;2023-05-07T06:55:53;99137.41;;;25.86;36.35
34197;BME280;36594;45.192;5.722;2023-05-07T06:58:42;99140.75;;;25.91;36.40
34197;BME280;36594;45.192;5.722;2023-05-07T07:01:31;99134.42;;;25.93;36.36
34197;BME280;36594;45.192;5.722;2023-05-07T07:04:20;99134.20;;;25.97;36.28
34197;BME280;36594;45.192;5.722;2023-05-07T07:07:12;99139.98;;;26.00;36.29
34197;BME280;36594;45.192;5.722;2023-05-07T07:10:01;99144.97;;;26.03;36.27
34197;BME280;36594;45.192;5.722;2023-05-07T07:12:51;99133.96;;;26.03;36.28
34197;BME280;36594;45.192;5.722;2023-05-07T07:15:40;99140.84;;;26.03;36.28
34197;BME280;36594;45.192;5.722;2023-05-07T07:18:29;99144.71;;;26.07;36.26
34197;BME280;36594;45.192;5.722;2023-05-07T07:21:19;99146.91;;;26.05;36.29
34197;BME280;36594;45.192;5.722;2023-05-07T07:24:08;99150.52;;;26.08;36.29
34197;BME280;36594;45.192;5.722;2023-05-07T07:26:56;99152.97;;;26.07;36.31
34197;BME280;36594;45.192;5.722;2023-05-07T07:29:45;99153.80;;;26.08;36.31
34197;BME280;36594;45.192;5.722;2023-05-07T07:32:34;99153.31;;;26.11;36.29
34197;BME280;36594;45.192;5.722;2023-05-07T07:35:23;99153.86;;;26.11;36.26
34197;BME280;36594;45.192;5.722;2023-05-07T07:38:11;99159.38;;;26.13;36.27
34197;BME280;36594;45.192;5.722;2023-05-07T07:41:00;99164.89;;;26.13;36.33
34197;BME280;36594;45.192;5.722;2023-05-07T07:43:49;99158.27;;;26.14;36.30
34197;BME280;36594;45.192;5.722;2023-05-07T07:46:39;99160.22;;;26.14;36.32
34197;BME280;36594;45.192;5.722;2023-05-07T07:49:28;99161.31;;;26.15;36.36
34197;BME280;36594;45.192;5.722;2023-05-07T07:52:18;99164.61;;;26.15;36.37
34197;BME280;36594;45.192;5.722;2023-05-07T07:55:08;99166.84;;;26.18;36.34
34197;BME280;36594;45.192;5.722;2023-05-07T07:57:57;99169.86;;;26.19;36.30
34197;BME280;36594;45.192;5.722;2023-05-07T08:00:46;99168.76;;;26.17;36.40
34197;BME280;36594;45.192;5.722;2023-05-07T08:03:35;99173.20;;;26.21;36.35
34197;BME280;36594;45.192;5.722;2023-05-07T08:06:26;99175.95;;;26.21;36.38
34197;BME280;36594;45.192;5.722;2023-05-07T08:09:15;99175.67;;;26.22;36.39
34197;BME280;36594;45.192;5.722;2023-05-07T08:12:06;99177.58;;;26.19;36.40
34197;BME280;36594;45.192;5.722;2023-05-07T08:14:55;99170.72;;;26.22;36.41
34197;BME280;36594;45.192;5.722;2023-05-07T08:17:44;99167.42;;;26.22;36.39
34197;BME280;36594;45.192;5.722;2023-05-07T08:20:33;99164.69;;;26.25;36.37
34197;BME280;36594;45.192;5.722;2023-05-07T08:23:23;99159.70;;;26.22;36.41
34197;BME280;36594;45.192;5.722;2023-05-07T08:26:13;99165.52;;;26.25;36.44
34197;BME280;36594;45.192;5.722;2023-05-07T08:29:02;99170.75;;;26.27;36.38
34197;BME280;36594;45.192;5.722;2023-05-07T08:31:52;99173.80;;;26.28;36.30
34197;BME280;36594;45.192;5.722;2023-05-07T08:34:41;99174.31;;;26.25;36.04
34197;BME280;36594;45.192;5.722;2023-05-07T08:37:29;99177.07;;;26.25;36.12
34197;BME280;36594;45.192;5.722;2023-05-07T08:40:19;99180.92;;;26.26;36.04
34197;BME280;36594;45.192;5.722;2023-05-07T08:43:10;99183.97;;;26.27;35.93
34197;BME280;36594;45.192;5.722;2023-05-07T08:46:01;99182.84;;;26.26;35.94
34197;BME280;36594;45.192;5.722;2023-05-07T08:48:52;99191.42;;;26.29;36.01
34197;BME280;36594;45.192;5.722;2023-05-07T08:51:41;99183.42;;;26.25;36.12
34197;BME280;36594;45.192;5.722;2023-05-07T08:54:31;99184.23;;;26.28;36.09
34197;BME280;36594;45.192;5.722;2023-05-07T08:57:20;99189.73;;;26.26;36.13
34197;BME280;36594;45.192;5.722;2023-05-07T09:00:13;99186.41;;;26.24;36.19
34197;BME280;36594;45.192;5.722;2023-05-07T09:03:02;99198.56;;;26.25;36.24
34197;BME280;36594;45.192;5.722;2023-05-07T09:05:51;99198.28;;;26.27;36.22
34197;BME280;36594;45.192;5.722;2023-05-07T09:08:40;99198.28;;;26.27;36.26
34197;BME280;36594;45.192;5.722;2023-05-07T09:11:29;99200.74;;;26.26;36.28
34197;BME280;36594;45.192;5.722;2023-05-07T09:14:21;99207.64;;;26.28;36.26
34197;BME280;36594;45.192;5.722;2023-05-07T09:17:10;99206.55;;;26.27;36.28
34197;BME280;36594;45.192;5.722;2023-05-07T09:20:06;99210.67;;;26.27;36.28
34197;BME280;36594;45.192;5.722;2023-05-07T09:22:57;99206.25;;;26.26;36.36
34197;BME280;36594;45.192;5.722;2023-05-07T09:25:45;99212.05;;;26.27;36.33
34197;BME280;36594;45.192;5.722;2023-05-07T09:28:35;99212.59;;;26.26;36.37
34197;BME280;36594;45.192;5.722;2023-05-07T09:31:23;99219.23;;;26.28;36.34
34197;BME280;36594;45.192;5.722;2023-05-07T09:34:14;99225.82;;;26.27;36.38
34197;BME280;36594;45.192;5.722;2023-05-07T09:37:05;99228.05;;;26.30;36.36
34197;BME280;36594;45.192;5.722;2023-05-07T09:39:54;99230.79;;;26.27;36.43
34197;BME280;36594;45.192;5.722;2023-05-07T09:42:43;99233.80;;;26.28;36.42
34197;BME280;36594;45.192;5.722;2023-05-07T09:45:32;99231.05;;;26.28;36.42
34197;BME280;36594;45.192;5.722;2023-05-07T09:48:21;99224.47;;;26.29;36.45
34197;BME280;36594;45.192;5.722;2023-05-07T09:54:11;99221.98;;;26.28;36.45
34197;BME280;36594;45.192;5.722;2023-05-07T09:57:02;99226.09;;;26.25;36.51
34197;BME280;36594;45.192;5.722;2023-05-07T09:59:52;99228.58;;;26.27;36.53
34197;BME280;36594;45.192;5.722;2023-05-07T10:02:42;99225.00;;;26.29;36.52
34197;BME280;36594;45.192;5.722;2023-05-07T10:05:33;99226.11;;;26.30;36.48
34197;BME280;36594;45.192;5.722;2023-05-07T10:08:22;99228.28;;;26.26;36.53
34197;BME280;36594;45.192;5.722;2023-05-07T10:11:13;99225.00;;;26.29;36.56
34197;BME280;36594;45.192;5.722;2023-05-07T10:14:04;99235.19;;;26.28;36.56
34197;BME280;36594;45.192;5.722;2023-05-07T10:16:56;99232.70;;;26.27;36.52
34197;BME280;36594;45.192;5.722;2023-05-07T10:19:45;99232.41;;;26.26;36.60
34197;BME280;36594;45.192;5.722;2023-05-07T10:22:40;99230.49;;;26.26;36.60
34197;BME280;36594;45.192;5.722;2023-05-07T10:25:32;99241.50;;;26.26;36.56
34197;BME280;36594;45.192;5.722;2023-05-07T10:28:22;99239.05;;;26.27;36.57
34197;BME280;36594;45.192;5.722;2023-05-07T10:34:11;99238.21;;;26.27;36.56
34197;BME280;36594;45.192;5.722;2023-05-07T10:37:01;99234.38;;;26.28;36.55
34197;BME280;36594;45.192;5.722;2023-05-07T10:39:50;99233.22;;;26.24;36.62
34197;BME280;36594;45.192;5.722;2023-05-07T10:43:00;99240.11;;;26.24;36.67
34197;BME280;36594;45.192;5.722;2023-05-07T10:45:45;99231.87;;;26.26;36.59
34197;BME280;36594;45.192;5.722;2023-05-07T10:48:34;99235.98;;;26.24;36.64
34197;BME280;36594;45.192;5.722;2023-05-07T10:51:25;99228.28;;;26.26;36.59
34197;BME280;36594;45.192;5.722;2023-05-07T10:54:19;99233.00;;;26.28;36.58
34197;BME280;36594;45.192;5.722;2023-05-07T10:57:34;99228.58;;;26.27;36.58
34197;BME280;36594;45.192;5.722;2023-05-07T11:03:23;99235.44;;;26.24;36.61
34197;BME280;36594;45.192;5.722;2023-05-07T11:06:15;99247.02;;;26.26;36.64
34197;BME280;36594;45.192;5.722;2023-05-07T11:09:06;99245.09;;;26.27;36.58
34197;BME280;36594;45.192;5.722;2023-05-07T11:11:59;99241.80;;;26.27;36.60
34197;BME280;36594;45.192;5.722;2023-05-07T11:14:52;99250.08;;;26.30;36.56
34197;BME280;36594;45.192;5.722;2023-05-07T11:17:57;99248.70;;;26.30;36.54
34197;BME280;36594;45.192;5.722;2023-05-07T11:26:47;99255.61;;;26.32;36.63
34197;BME280;36594;45.192;5.722;2023-05-07T11:29:37;99252.86;;;26.32;36.63
34197;BME280;36594;45.192;5.722;2023-05-07T11:32:29;99262.22;;;26.34;36.65
34197;BME280;36594;45.192;5.722;2023-05-07T11:35:22;99267.75;;;26.36;36.70
34197;BME280;36594;45.192;5.722;2023-05-07T11:38:13;99263.59;;;26.34;36.74
34197;BME280;36594;45.192;5.722;2023-05-07T11:41:03;99273.80;;;26.36;36.75
34197;BME280;36594;45.192;5.722;2023-05-07T11:43:58;99277.66;;;26.35;36.70
34197;BME280;36594;45.192;5.722;2023-05-07T11:46:46;99282.08;;;26.38;36.61
34197;BME280;36594;45.192;5.722;2023-05-07T11:49:35;99287.03;;;26.36;36.50
34197;BME280;36594;45.192;5.722;2023-05-07T11:52:24;99286.19;;;26.36;36.50
34197;BME280;36594;45.192;5.722;2023-05-07T11:55:13;99294.73;;;26.34;36.36
34197;BME280;36594;45.192;5.722;2023-05-07T11:58:01;99277.66;;;26.35;36.27
34197;BME280;36594;45.192;5.722;2023-05-07T12:00:53;99285.63;;;26.34;36.15
34197;BME280;36594;45.192;5.722;2023-05-07T12:03:43;99282.31;;;26.32;36.05
34197;BME280;36594;45.192;5.722;2023-05-07T12:06:35;99291.66;;;26.31;36.00
34197;BME280;36594;45.192;5.722;2023-05-07T12:09:26;99283.13;;;26.30;36.11
34197;BME280;36594;45.192;5.722;2023-05-07T12:12:15;99291.93;;;26.29;36.02
34197;BME280;36594;45.192;5.722;2023-05-07T12:15:05;99294.69;;;26.29;36.01
34197;BME280;36594;45.192;5.722;2023-05-07T12:17:54;99286.42;;;26.29;36.03
34197;BME280;36594;45.192;5.722;2023-05-07T12:20:42;99292.77;;;26.30;35.93
34197;BME280;36594;45.192;5.722;2023-05-07T12:23:38;99301.59;;;26.32;35.86
34197;BME280;36594;45.192;5.722;2023-05-07T12:26:22;99293.58;;;26.30;35.84
34197;BME280;36594;45.192;5.722;2023-05-07T12:29:11;99297.16;;;26.31;35.82
34197;BME280;36594;45.192;5.722;2023-05-07T12:31:59;99293.33;;;26.32;35.83
34197;BME280;36594;45.192;5.722;2023-05-07T12:34:50;99289.20;;;26.32;35.73
34197;BME280;36594;45.192;5.722;2023-05-07T12:37:39;99288.36;;;26.31;35.76
34197;BME280;36594;45.192;5.722;2023-05-07T12:40:40;99283.67;;;26.29;35.87
34197;BME280;36594;45.192;5.722;2023-05-07T12:43:29;99285.88;;;26.30;35.85
34197;BME280;36594;45.192;5.722;2023-05-07T12:46:18;99282.56;;;26.28;35.89
34197;BME280;36594;45.192;5.722;2023-05-07T12:49:06;99297.98;;;26.29;35.91
34197;BME280;36594;45.192;5.722;2023-05-07T12:51:56;99292.47;;;26.29;35.86
34197;BME280;36594;45.192;5.722;2023-05-07T12:54:44;99288.91;;;26.31;35.84
34197;BME280;36594;45.192;5.722;2023-05-07T12:57:41;99315.36;;;26.32;35.80
34197;BME280;36594;45.192;5.722;2023-05-07T13:00:36;99301.86;;;26.33;35.82
34197;BME280;36594;45.192;5.722;2023-05-07T13:03:28;99294.41;;;26.31;35.81
34197;BME280;36594;45.192;5.722;2023-05-07T13:06:17;99294.14;;;26.30;35.78
34197;BME280;36594;45.192;5.722;2023-05-07T13:09:05;99301.84;;;26.28;35.80
34197;BME280;36594;45.192;5.722;2023-05-07T13:11:54;99295.50;;;26.27;35.83
34197;BME280;36594;45.192;5.722;2023-05-07T13:14:43;99302.36;;;26.25;35.85
34197;BME280;36594;45.192;5.722;2023-05-07T13:17:31;99297.39;;;26.24;35.92
34197;BME280;36594;45.192;5.722;2023-05-07T13:20:19;99300.17;;;26.27;35.92
34197;BME280;36594;45.192;5.722;2023-05-07T13:23:08;99307.87;;;26.25;36.00
34197;BME280;36594;45.192;5.722;2023-05-07T13:25:59;99303.73;;;26.25;36.03
34197;BME280;36594;45.192;5.722;2023-05-07T13:28:48;99300.15;;;26.24;36.09
34197;BME280;36594;45.192;5.722;2023-05-07T13:31:38;99323.28;;;26.23;36.13
34197;BME280;36594;45.192;5.722;2023-05-07T13:34:28;99316.08;;;26.20;36.16
34197;BME280;36594;45.192;5.722;2023-05-07T13:37:17;99293.76;;;26.19;36.25
34197;BME280;36594;45.192;5.722;2023-05-07T13:40:06;99297.08;;;26.18;36.31
34197;BME280;36594;45.192;5.722;2023-05-07T13:42:57;99303.12;;;26.18;36.35
34197;BME280;36594;45.192;5.722;2023-05-07T13:45:47;99319.13;;;26.21;36.43
34197;BME280;36594;45.192;5.722;2023-05-07T13:48:36;99306.74;;;26.21;36.40
34197;BME280;36594;45.192;5.722;2023-05-07T13:51:25;99319.38;;;26.19;36.47
34197;BME280;36594;45.192;5.722;2023-05-07T13:54:13;99340.30;;;26.18;36.49
34197;BME280;36594;45.192;5.722;2023-05-07T13:57:01;99328.74;;;26.18;36.53
34197;BME280;36594;45.192;5.722;2023-05-07T13:59:50;99331.17;;;26.15;36.59
34197;BME280;36594;45.192;5.722;2023-05-07T14:02:38;99333.12;;;26.17;36.61
34197;BME280;36594;45.192;5.722;2023-05-07T14:05:27;99329.53;;;26.14;36.65
34197;BME280;36594;45.192;5.722;2023-05-07T14:08:16;99342.46;;;26.13;36.68
34197;BME280;36594;45.192;5.722;2023-05-07T14:11:06;99334.74;;;26.13;36.73
34197;BME280;36594;45.192;5.722;2023-05-07T14:13:54;99354.02;;;26.13;36.73
34197;BME280;36594;45.192;5.722;2023-05-07T14:16:44;99336.39;;;26.11;36.76
34197;BME280;36594;45.192;5.722;2023-05-07T14:19:32;99343.81;;;26.11;36.76
34197;BME280;36594;45.192;5.722;2023-05-07T14:22:22;99352.55;;;26.07;36.77
34197;BME280;36594;45.192;5.722;2023-05-07T14:25:10;99348.16;;;26.06;36.86
34197;BME280;36594;45.192;5.722;2023-05-07T14:28:00;99371.55;;;26.06;36.88
34197;BME280;36594;45.192;5.722;2023-05-07T14:30:49;99338.78;;;26.07;36.88
34197;BME280;36594;45.192;5.722;2023-05-07T14:33:38;99344.30;;;26.07;36.90
34197;BME280;36594;45.192;5.722;2023-05-07T14:36:26;99352.28;;;26.06;36.96
34197;BME280;36594;45.192;5.722;2023-05-07T14:39:15;99339.09;;;26.08;36.95
34197;BME280;36594;45.192;5.722;2023-05-07T14:42:04;99347.05;;;26.07;36.92
34197;BME280;36594;45.192;5.722;2023-05-07T14:44:52;99343.48;;;26.09;36.97
34197;BME280;36594;45.192;5.722;2023-05-07T14:47:41;99346.23;;;26.09;36.98
34197;BME280;36594;45.192;5.722;2023-05-07T14:50:29;99347.94;;;26.11;37.01
34197;BME280;36594;45.192;5.722;2023-05-07T14:53:18;99350.64;;;26.08;37.05
34197;BME280;36594;45.192;5.722;2023-05-07T14:56:07;99351.42;;;26.03;37.14
34197;BME280;36594;45.192;5.722;2023-05-07T14:58:55;99363.24;;;26.01;37.21
34197;BME280;36594;45.192;5.722;2023-05-07T15:01:44;99355.80;;;25.99;37.25
34197;BME280;36594;45.192;5.722;2023-05-07T15:04:33;99359.63;;;25.98;37.29
34197;BME280;36594;45.192;5.722;2023-05-07T15:07:21;99369.53;;;25.97;37.40
34197;BME280;36594;45.192;5.722;2023-05-07T15:10:10;99370.70;;;25.79;37.78
34197;BME280;36594;45.192;5.722;2023-05-07T15:12:58;99343.98;;;25.77;37.88